Tylerton, Maryland
Current Conditions -  °F | °C
As of 1:01 PM on Sunday 25 Jan 2015 (Local Time) from KTGI Reporting Station
Clear Clear  
Wind Chill: 40°   Ceiling: Unl
Heat Index: 45°   Visibility: 10mi
Dew Point: 37°   Wind: 8mph
Humidity: 76%   Direction: 210°SSW
Pressure: 29.87"   Gusts: NA
Location:  37.97°N, 76.02°W
Report Text: KTGI 251801Z AUTO 21007KT 10SM CLR 07/03 A2987 RMK AO1
Loading
Personal Weather Stations






























Interactive Weather Map New forecast layout! Learn more

10-Day Weather Forecast

Advertisements
Track Severe Weather on mobile